sensor_id;sensor_type;location;lat;lon;timestamp;P1;durP1;ratioP1;P2;durP2;ratioP2
49488;SDS011;35382;51.484;11.476;2022-11-12T00:00:29;12.85;;;9.13;;
49488;SDS011;35382;51.484;11.476;2022-11-12T00:02:29;17.13;;;9.70;;
49488;SDS011;35382;51.484;11.476;2022-11-12T00:04:28;12.85;;;10.05;;
49488;SDS011;35382;51.484;11.476;2022-11-12T00:06:28;15.07;;;10.63;;
49488;SDS011;35382;51.484;11.476;2022-11-12T00:08:27;17.65;;;11.10;;
49488;SDS011;35382;51.484;11.476;2022-11-12T00:10:27;16.15;;;11.48;;
49488;SDS011;35382;51.484;11.476;2022-11-12T00:12:27;16.45;;;12.07;;
49488;SDS011;35382;51.484;11.476;2022-11-12T00:14:26;17.15;;;11.90;;
49488;SDS011;35382;51.484;11.476;2022-11-12T00:16:26;17.30;;;11.38;;
49488;SDS011;35382;51.484;11.476;2022-11-12T00:18:26;17.08;;;11.23;;
49488;SDS011;35382;51.484;11.476;2022-11-12T00:20:25;17.40;;;10.90;;
49488;SDS011;35382;51.484;11.476;2022-11-12T00:22:25;17.17;;;9.52;;
49488;SDS011;35382;51.484;11.476;2022-11-12T00:24:25;13.93;;;10.02;;
49488;SDS011;35382;51.484;11.476;2022-11-12T00:26:24;14.32;;;9.25;;
49488;SDS011;35382;51.484;11.476;2022-11-12T00:28:24;16.58;;;9.60;;
49488;SDS011;35382;51.484;11.476;2022-11-12T00:30:24;16.25;;;10.77;;
49488;SDS011;35382;51.484;11.476;2022-11-12T00:32:23;16.02;;;10.85;;
49488;SDS011;35382;51.484;11.476;2022-11-12T00:34:23;17.40;;;10.70;;
49488;SDS011;35382;51.484;11.476;2022-11-12T00:36:23;16.00;;;10.35;;
49488;SDS011;35382;51.484;11.476;2022-11-12T00:38:22;15.63;;;10.18;;
49488;SDS011;35382;51.484;11.476;2022-11-12T00:40:22;16.20;;;9.57;;
49488;SDS011;35382;51.484;11.476;2022-11-12T00:42:22;13.88;;;9.38;;
49488;SDS011;35382;51.484;11.476;2022-11-12T00:44:21;16.13;;;10.30;;
49488;SDS011;35382;51.484;11.476;2022-11-12T00:46:21;13.85;;;9.43;;
49488;SDS011;35382;51.484;11.476;2022-11-12T00:48:20;13.85;;;9.25;;
49488;SDS011;35382;51.484;11.476;2022-11-12T00:50:20;13.93;;;9.75;;
49488;SDS011;35382;51.484;11.476;2022-11-12T00:52:20;14.70;;;8.88;;
49488;SDS011;35382;51.484;11.476;2022-11-12T00:54:20;11.68;;;8.32;;
49488;SDS011;35382;51.484;11.476;2022-11-12T00:56:19;13.50;;;8.25;;
49488;SDS011;35382;51.484;11.476;2022-11-12T00:58:19;14.50;;;8.77;;
49488;SDS011;35382;51.484;11.476;2022-11-12T01:00:19;16.20;;;9.27;;
49488;SDS011;35382;51.484;11.476;2022-11-12T01:02:18;21.75;;;9.60;;
49488;SDS011;35382;51.484;11.476;2022-11-12T01:04:18;15.18;;;9.85;;
49488;SDS011;35382;51.484;11.476;2022-11-12T01:06:19;16.30;;;10.10;;
49488;SDS011;35382;51.484;11.476;2022-11-12T01:08:20;15.48;;;9.75;;
49488;SDS011;35382;51.484;11.476;2022-11-12T01:10:19;15.40;;;9.93;;
49488;SDS011;35382;51.484;11.476;2022-11-12T01:12:19;14.93;;;10.13;;
49488;SDS011;35382;51.484;11.476;2022-11-12T01:14:18;17.35;;;10.70;;
49488;SDS011;35382;51.484;11.476;2022-11-12T01:16:19;14.55;;;9.10;;
49488;SDS011;35382;51.484;11.476;2022-11-12T01:18:21;13.30;;;8.70;;
49488;SDS011;35382;51.484;11.476;2022-11-12T01:20:20;13.27;;;8.93;;
49488;SDS011;35382;51.484;11.476;2022-11-12T01:22:20;13.35;;;8.70;;
49488;SDS011;35382;51.484;11.476;2022-11-12T01:24:19;12.50;;;8.50;;
49488;SDS011;35382;51.484;11.476;2022-11-12T01:26:20;15.50;;;7.78;;
49488;SDS011;35382;51.484;11.476;2022-11-12T01:28:20;13.68;;;7.80;;
49488;SDS011;35382;51.484;11.476;2022-11-12T01:30:19;9.57;;;7.10;;
49488;SDS011;35382;51.484;11.476;2022-11-12T01:32:19;12.18;;;7.25;;
49488;SDS011;35382;51.484;11.476;2022-11-12T01:34:19;13.27;;;7.47;;
49488;SDS011;35382;51.484;11.476;2022-11-12T01:36:19;12.35;;;7.90;;
49488;SDS011;35382;51.484;11.476;2022-11-12T01:38:19;12.98;;;7.72;;
49488;SDS011;35382;51.484;11.476;2022-11-12T01:40:18;13.73;;;8.07;;
49488;SDS011;35382;51.484;11.476;2022-11-12T01:42:18;13.27;;;7.63;;
49488;SDS011;35382;51.484;11.476;2022-11-12T01:44:19;13.88;;;8.60;;
49488;SDS011;35382;51.484;11.476;2022-11-12T01:46:22;14.35;;;8.18;;
49488;SDS011;35382;51.484;11.476;2022-11-12T01:50:33;9.48;;;6.80;;
49488;SDS011;35382;51.484;11.476;2022-11-12T01:52:35;14.38;;;7.55;;
49488;SDS011;35382;51.484;11.476;2022-11-12T01:54:44;12.80;;;7.70;;
49488;SDS011;35382;51.484;11.476;2022-11-12T01:56:48;12.70;;;7.60;;
49488;SDS011;35382;51.484;11.476;2022-11-12T01:58:49;11.85;;;7.45;;
49488;SDS011;35382;51.484;11.476;2022-11-12T02:00:54;11.85;;;8.52;;
49488;SDS011;35382;51.484;11.476;2022-11-12T02:02:54;11.98;;;7.53;;
49488;SDS011;35382;51.484;11.476;2022-11-12T02:04:57;13.65;;;7.68;;
49488;SDS011;35382;51.484;11.476;2022-11-12T02:06:57;12.43;;;7.90;;
49488;SDS011;35382;51.484;11.476;2022-11-12T02:08:57;10.23;;;6.95;;
49488;SDS011;35382;51.484;11.476;2022-11-12T02:10:57;14.30;;;8.32;;
49488;SDS011;35382;51.484;11.476;2022-11-12T02:12:57;15.60;;;8.43;;
49488;SDS011;35382;51.484;11.476;2022-11-12T02:15:15;13.15;;;8.15;;
49488;SDS011;35382;51.484;11.476;2022-11-12T02:17:15;14.07;;;8.68;;
49488;SDS011;35382;51.484;11.476;2022-11-12T02:19:15;15.60;;;8.77;;
49488;SDS011;35382;51.484;11.476;2022-11-12T02:21:19;16.13;;;8.40;;
49488;SDS011;35382;51.484;11.476;2022-11-12T02:23:20;13.93;;;8.27;;
49488;SDS011;35382;51.484;11.476;2022-11-12T02:25:21;17.33;;;8.82;;
49488;SDS011;35382;51.484;11.476;2022-11-12T02:27:22;12.88;;;8.05;;
49488;SDS011;35382;51.484;11.476;2022-11-12T02:29:22;14.93;;;8.20;;
49488;SDS011;35382;51.484;11.476;2022-11-12T02:31:21;16.08;;;8.73;;
49488;SDS011;35382;51.484;11.476;2022-11-12T02:33:21;16.73;;;10.18;;
49488;SDS011;35382;51.484;11.476;2022-11-12T02:35:21;15.98;;;9.30;;
49488;SDS011;35382;51.484;11.476;2022-11-12T02:37:20;13.65;;;9.10;;
49488;SDS011;35382;51.484;11.476;2022-11-12T02:39:20;15.18;;;9.95;;
49488;SDS011;35382;51.484;11.476;2022-11-12T02:41:20;11.13;;;7.70;;
49488;SDS011;35382;51.484;11.476;2022-11-12T02:43:20;13.23;;;8.35;;
49488;SDS011;35382;51.484;11.476;2022-11-12T02:45:20;17.15;;;9.95;;
49488;SDS011;35382;51.484;11.476;2022-11-12T02:47:20;14.75;;;9.55;;
49488;SDS011;35382;51.484;11.476;2022-11-12T02:49:19;14.35;;;9.90;;
49488;SDS011;35382;51.484;11.476;2022-11-12T02:51:19;18.42;;;11.02;;
49488;SDS011;35382;51.484;11.476;2022-11-12T02:53:19;12.35;;;8.93;;
49488;SDS011;35382;51.484;11.476;2022-11-12T02:55:19;15.45;;;8.75;;
49488;SDS011;35382;51.484;11.476;2022-11-12T02:57:19;13.10;;;8.75;;
49488;SDS011;35382;51.484;11.476;2022-11-12T02:59:19;11.98;;;8.18;;
49488;SDS011;35382;51.484;11.476;2022-11-12T03:01:18;14.65;;;9.60;;
49488;SDS011;35382;51.484;11.476;2022-11-12T03:03:18;18.10;;;11.82;;
49488;SDS011;35382;51.484;11.476;2022-11-12T03:05:17;17.20;;;10.32;;
49488;SDS011;35382;51.484;11.476;2022-11-12T03:07:17;16.45;;;10.77;;
49488;SDS011;35382;51.484;11.476;2022-11-12T03:09:17;18.83;;;11.57;;
49488;SDS011;35382;51.484;11.476;2022-11-12T03:11:16;16.27;;;10.25;;
49488;SDS011;35382;51.484;11.476;2022-11-12T03:13:16;14.63;;;9.48;;
49488;SDS011;35382;51.484;11.476;2022-11-12T03:15:16;15.50;;;10.23;;
49488;SDS011;35382;51.484;11.476;2022-11-12T03:17:16;13.40;;;8.73;;
49488;SDS011;35382;51.484;11.476;2022-11-12T03:19:16;14.25;;;8.65;;
49488;SDS011;35382;51.484;11.476;2022-11-12T03:21:15;13.32;;;8.80;;
49488;SDS011;35382;51.484;11.476;2022-11-12T03:23:15;14.10;;;9.75;;
49488;SDS011;35382;51.484;11.476;2022-11-12T03:25:15;13.35;;;9.55;;
49488;SDS011;35382;51.484;11.476;2022-11-12T03:27:14;14.25;;;10.05;;
49488;SDS011;35382;51.484;11.476;2022-11-12T03:29:14;17.00;;;10.98;;
49488;SDS011;35382;51.484;11.476;2022-11-12T03:31:14;18.95;;;11.73;;
49488;SDS011;35382;51.484;11.476;2022-11-12T03:33:14;16.48;;;10.98;;
49488;SDS011;35382;51.484;11.476;2022-11-12T03:35:14;19.13;;;11.05;;
49488;SDS011;35382;51.484;11.476;2022-11-12T03:37:14;18.15;;;11.02;;
49488;SDS011;35382;51.484;11.476;2022-11-12T03:39:13;17.08;;;11.35;;
49488;SDS011;35382;51.484;11.476;2022-11-12T03:41:12;17.83;;;11.27;;
49488;SDS011;35382;51.484;11.476;2022-11-12T03:43:12;17.92;;;11.35;;
49488;SDS011;35382;51.484;11.476;2022-11-12T03:45:12;15.38;;;10.82;;
49488;SDS011;35382;51.484;11.476;2022-11-12T03:47:12;18.95;;;11.25;;
49488;SDS011;35382;51.484;11.476;2022-11-12T03:49:11;17.25;;;10.73;;
49488;SDS011;35382;51.484;11.476;2022-11-12T03:51:11;17.42;;;10.25;;
49488;SDS011;35382;51.484;11.476;2022-11-12T03:53:14;16.85;;;9.20;;
49488;SDS011;35382;51.484;11.476;2022-11-12T03:55:14;15.40;;;9.60;;
49488;SDS011;35382;51.484;11.476;2022-11-12T03:57:15;16.58;;;10.25;;
49488;SDS011;35382;51.484;11.476;2022-11-12T03:59:15;15.05;;;9.95;;
49488;SDS011;35382;51.484;11.476;2022-11-12T04:01:14;14.40;;;9.32;;
49488;SDS011;35382;51.484;11.476;2022-11-12T04:03:14;15.43;;;9.55;;
49488;SDS011;35382;51.484;11.476;2022-11-12T04:05:14;17.92;;;10.65;;
49488;SDS011;35382;51.484;11.476;2022-11-12T04:07:32;19.35;;;11.23;;
49488;SDS011;35382;51.484;11.476;2022-11-12T04:09:50;18.58;;;11.57;;
49488;SDS011;35382;51.484;11.476;2022-11-12T04:11:50;18.05;;;10.50;;
49488;SDS011;35382;51.484;11.476;2022-11-12T04:13:49;18.38;;;10.77;;
49488;SDS011;35382;51.484;11.476;2022-11-12T04:15:49;20.83;;;11.75;;
49488;SDS011;35382;51.484;11.476;2022-11-12T04:18:08;19.25;;;11.88;;
49488;SDS011;35382;51.484;11.476;2022-11-12T04:20:26;21.45;;;12.63;;
49488;SDS011;35382;51.484;11.476;2022-11-12T04:22:44;18.92;;;12.45;;
49488;SDS011;35382;51.484;11.476;2022-11-12T04:24:44;18.40;;;13.02;;
49488;SDS011;35382;51.484;11.476;2022-11-12T04:27:02;21.70;;;13.45;;
49488;SDS011;35382;51.484;11.476;2022-11-12T04:29:02;19.10;;;14.77;;
49488;SDS011;35382;51.484;11.476;2022-11-12T04:31:20;17.98;;;11.73;;
49488;SDS011;35382;51.484;11.476;2022-11-12T04:33:19;18.83;;;11.23;;
49488;SDS011;35382;51.484;11.476;2022-11-12T04:35:20;16.40;;;11.15;;
49488;SDS011;35382;51.484;11.476;2022-11-12T04:37:21;18.85;;;11.90;;
49488;SDS011;35382;51.484;11.476;2022-11-12T04:39:21;17.25;;;10.77;;
49488;SDS011;35382;51.484;11.476;2022-11-12T04:41:20;17.13;;;10.52;;
49488;SDS011;35382;51.484;11.476;2022-11-12T04:45:56;14.05;;;8.55;;
49488;SDS011;35382;51.484;11.476;2022-11-12T04:47:56;16.30;;;9.00;;
49488;SDS011;35382;51.484;11.476;2022-11-12T04:49:56;15.77;;;9.95;;
49488;SDS011;35382;51.484;11.476;2022-11-12T04:51:56;14.45;;;9.10;;
49488;SDS011;35382;51.484;11.476;2022-11-12T04:54:04;14.93;;;10.07;;
49488;SDS011;35382;51.484;11.476;2022-11-12T04:56:04;14.88;;;9.27;;
49488;SDS011;35382;51.484;11.476;2022-11-12T04:58:04;17.05;;;10.00;;
49488;SDS011;35382;51.484;11.476;2022-11-12T05:00:04;16.60;;;9.68;;
49488;SDS011;35382;51.484;11.476;2022-11-12T05:02:04;16.30;;;9.60;;
49488;SDS011;35382;51.484;11.476;2022-11-12T05:04:04;13.27;;;8.38;;
49488;SDS011;35382;51.484;11.476;2022-11-12T05:06:04;14.77;;;9.40;;
49488;SDS011;35382;51.484;11.476;2022-11-12T05:08:27;13.90;;;9.15;;
49488;SDS011;35382;51.484;11.476;2022-11-12T05:10:26;13.98;;;8.73;;
49488;SDS011;35382;51.484;11.476;2022-11-12T05:12:26;20.45;;;10.05;;
49488;SDS011;35382;51.484;11.476;2022-11-12T05:14:26;14.18;;;9.27;;
49488;SDS011;35382;51.484;11.476;2022-11-12T05:16:25;15.88;;;11.00;;
49488;SDS011;35382;51.484;11.476;2022-11-12T05:18:24;16.83;;;10.90;;
49488;SDS011;35382;51.484;11.476;2022-11-12T05:20:24;17.55;;;11.45;;
49488;SDS011;35382;51.484;11.476;2022-11-12T05:22:23;16.60;;;10.82;;
49488;SDS011;35382;51.484;11.476;2022-11-12T05:24:23;17.40;;;9.48;;
49488;SDS011;35382;51.484;11.476;2022-11-12T05:26:23;13.38;;;8.65;;
49488;SDS011;35382;51.484;11.476;2022-11-12T05:28:22;12.25;;;8.20;;
49488;SDS011;35382;51.484;11.476;2022-11-12T05:30:22;15.40;;;9.55;;
49488;SDS011;35382;51.484;11.476;2022-11-12T05:32:21;16.20;;;10.13;;
49488;SDS011;35382;51.484;11.476;2022-11-12T05:34:21;13.95;;;8.52;;
49488;SDS011;35382;51.484;11.476;2022-11-12T05:36:21;13.93;;;8.90;;
49488;SDS011;35382;51.484;11.476;2022-11-12T05:38:20;16.38;;;10.20;;
49488;SDS011;35382;51.484;11.476;2022-11-12T05:40:19;14.82;;;9.23;;
49488;SDS011;35382;51.484;11.476;2022-11-12T05:42:19;16.10;;;9.75;;
49488;SDS011;35382;51.484;11.476;2022-11-12T05:44:19;15.88;;;9.57;;
49488;SDS011;35382;51.484;11.476;2022-11-12T05:46:19;14.63;;;9.23;;
49488;SDS011;35382;51.484;11.476;2022-11-12T05:48:18;15.80;;;9.75;;
49488;SDS011;35382;51.484;11.476;2022-11-12T05:50:18;15.40;;;8.63;;
49488;SDS011;35382;51.484;11.476;2022-11-12T05:52:18;12.88;;;8.52;;
49488;SDS011;35382;51.484;11.476;2022-11-12T05:54:17;11.88;;;7.75;;
49488;SDS011;35382;51.484;11.476;2022-11-12T05:56:17;12.45;;;8.07;;
49488;SDS011;35382;51.484;11.476;2022-11-12T05:58:17;12.70;;;7.82;;
49488;SDS011;35382;51.484;11.476;2022-11-12T06:00:17;13.07;;;8.27;;
49488;SDS011;35382;51.484;11.476;2022-11-12T06:02:16;17.52;;;8.55;;
49488;SDS011;35382;51.484;11.476;2022-11-12T06:04:16;12.95;;;8.13;;
49488;SDS011;35382;51.484;11.476;2022-11-12T06:06:16;10.48;;;7.00;;
49488;SDS011;35382;51.484;11.476;2022-11-12T06:08:15;14.10;;;7.93;;
49488;SDS011;35382;51.484;11.476;2022-11-12T06:10:16;12.38;;;7.78;;
49488;SDS011;35382;51.484;11.476;2022-11-12T06:12:15;12.73;;;7.95;;
49488;SDS011;35382;51.484;11.476;2022-11-12T06:14:14;11.80;;;8.32;;
49488;SDS011;35382;51.484;11.476;2022-11-12T06:16:14;15.45;;;7.78;;
49488;SDS011;35382;51.484;11.476;2022-11-12T06:18:14;12.23;;;7.75;;
49488;SDS011;35382;51.484;11.476;2022-11-12T06:20:13;13.27;;;8.30;;
49488;SDS011;35382;51.484;11.476;2022-11-12T06:22:13;13.25;;;8.32;;
49488;SDS011;35382;51.484;11.476;2022-11-12T06:24:13;13.43;;;8.50;;
49488;SDS011;35382;51.484;11.476;2022-11-12T06:26:12;13.30;;;7.47;;
49488;SDS011;35382;51.484;11.476;2022-11-12T06:28:12;11.35;;;6.47;;
49488;SDS011;35382;51.484;11.476;2022-11-12T06:30:12;15.43;;;7.75;;
49488;SDS011;35382;51.484;11.476;2022-11-12T06:32:11;12.15;;;7.15;;
49488;SDS011;35382;51.484;11.476;2022-11-12T06:34:11;13.18;;;7.13;;
49488;SDS011;35382;51.484;11.476;2022-11-12T06:36:11;12.38;;;7.30;;
49488;SDS011;35382;51.484;11.476;2022-11-12T06:38:12;12.30;;;7.22;;
49488;SDS011;35382;51.484;11.476;2022-11-12T06:40:12;12.05;;;6.82;;
49488;SDS011;35382;51.484;11.476;2022-11-12T06:42:11;13.65;;;8.05;;
49488;SDS011;35382;51.484;11.476;2022-11-12T06:44:11;12.07;;;7.22;;
49488;SDS011;35382;51.484;11.476;2022-11-12T06:46:12;11.07;;;6.65;;
49488;SDS011;35382;51.484;11.476;2022-11-12T06:48:13;11.18;;;6.47;;
49488;SDS011;35382;51.484;11.476;2022-11-12T06:50:13;11.90;;;6.72;;
49488;SDS011;35382;51.484;11.476;2022-11-12T06:52:13;11.65;;;6.50;;
49488;SDS011;35382;51.484;11.476;2022-11-12T06:54:13;10.65;;;6.55;;
49488;SDS011;35382;51.484;11.476;2022-11-12T06:56:13;12.57;;;6.57;;
49488;SDS011;35382;51.484;11.476;2022-11-12T06:58:13;14.13;;;7.47;;
49488;SDS011;35382;51.484;11.476;2022-11-12T07:00:13;9.40;;;7.07;;
49488;SDS011;35382;51.484;11.476;2022-11-12T07:02:13;11.60;;;6.60;;
49488;SDS011;35382;51.484;11.476;2022-11-12T07:04:13;11.25;;;6.47;;
49488;SDS011;35382;51.484;11.476;2022-11-12T07:06:13;12.05;;;7.20;;
49488;SDS011;35382;51.484;11.476;2022-11-12T07:08:17;10.88;;;6.57;;
49488;SDS011;35382;51.484;11.476;2022-11-12T07:10:16;11.73;;;6.47;;
49488;SDS011;35382;51.484;11.476;2022-11-12T07:12:19;11.07;;;6.18;;
49488;SDS011;35382;51.484;11.476;2022-11-12T07:14:18;11.48;;;6.47;;
49488;SDS011;35382;51.484;11.476;2022-11-12T07:16:18;12.82;;;7.78;;
49488;SDS011;35382;51.484;11.476;2022-11-12T07:18:18;12.95;;;7.18;;
49488;SDS011;35382;51.484;11.476;2022-11-12T07:20:17;13.77;;;7.97;;
49488;SDS011;35382;51.484;11.476;2022-11-12T07:22:17;13.93;;;8.30;;
49488;SDS011;35382;51.484;11.476;2022-11-12T07:24:17;11.55;;;7.45;;
49488;SDS011;35382;51.484;11.476;2022-11-12T07:26:23;15.45;;;9.50;;
49488;SDS011;35382;51.484;11.476;2022-11-12T07:28:25;15.32;;;9.30;;
49488;SDS011;35382;51.484;11.476;2022-11-12T07:30:25;14.10;;;8.93;;
49488;SDS011;35382;51.484;11.476;2022-11-12T07:32:25;17.70;;;9.20;;
49488;SDS011;35382;51.484;11.476;2022-11-12T07:34:24;16.85;;;9.20;;
49488;SDS011;35382;51.484;11.476;2022-11-12T07:36:24;15.48;;;9.45;;
49488;SDS011;35382;51.484;11.476;2022-11-12T07:38:23;13.75;;;9.45;;
49488;SDS011;35382;51.484;11.476;2022-11-12T07:40:23;13.63;;;8.90;;
49488;SDS011;35382;51.484;11.476;2022-11-12T07:42:23;15.40;;;8.77;;
49488;SDS011;35382;51.484;11.476;2022-11-12T07:44:22;17.77;;;11.20;;
49488;SDS011;35382;51.484;11.476;2022-11-12T07:46:23;22.58;;;15.60;;
49488;SDS011;35382;51.484;11.476;2022-11-12T07:48:25;17.83;;;13.13;;
49488;SDS011;35382;51.484;11.476;2022-11-12T07:50:25;23.48;;;15.38;;
49488;SDS011;35382;51.484;11.476;2022-11-12T07:52:24;23.65;;;15.23;;
49488;SDS011;35382;51.484;11.476;2022-11-12T07:54:24;28.08;;;16.77;;
49488;SDS011;35382;51.484;11.476;2022-11-12T07:56:24;28.30;;;17.08;;
49488;SDS011;35382;51.484;11.476;2022-11-12T07:58:25;30.23;;;18.38;;
49488;SDS011;35382;51.484;11.476;2022-11-12T08:00:26;34.97;;;19.60;;
49488;SDS011;35382;51.484;11.476;2022-11-12T08:02:25;37.75;;;20.17;;
49488;SDS011;35382;51.484;11.476;2022-11-12T08:04:25;27.25;;;17.00;;
49488;SDS011;35382;51.484;11.476;2022-11-12T08:06:25;27.23;;;20.23;;
49488;SDS011;35382;51.484;11.476;2022-11-12T08:08:26;106.78;;;63.42;;
49488;SDS011;35382;51.484;11.476;2022-11-12T08:10:25;42.42;;;27.45;;
49488;SDS011;35382;51.484;11.476;2022-11-12T08:12:25;52.08;;;36.83;;
49488;SDS011;35382;51.484;11.476;2022-11-12T08:14:24;30.42;;;20.20;;
49488;SDS011;35382;51.484;11.476;2022-11-12T08:16:24;25.38;;;17.08;;
49488;SDS011;35382;51.484;11.476;2022-11-12T08:18:24;16.60;;;10.85;;
49488;SDS011;35382;51.484;11.476;2022-11-12T08:20:24;23.25;;;17.23;;
49488;SDS011;35382;51.484;11.476;2022-11-12T08:22:24;25.63;;;17.10;;
49488;SDS011;35382;51.484;11.476;2022-11-12T08:24:24;15.15;;;9.27;;
49488;SDS011;35382;51.484;11.476;2022-11-12T08:26:23;14.50;;;9.88;;
49488;SDS011;35382;51.484;11.476;2022-11-12T08:28:24;12.60;;;9.73;;
49488;SDS011;35382;51.484;11.476;2022-11-12T08:30:27;13.25;;;9.63;;
49488;SDS011;35382;51.484;11.476;2022-11-12T08:32:27;12.93;;;9.35;;
49488;SDS011;35382;51.484;11.476;2022-11-12T08:34:27;14.75;;;9.77;;
49488;SDS011;35382;51.484;11.476;2022-11-12T08:36:27;14.65;;;9.40;;
49488;SDS011;35382;51.484;11.476;2022-11-12T08:38:26;13.13;;;8.88;;
49488;SDS011;35382;51.484;11.476;2022-11-12T08:40:29;17.83;;;11.07;;
49488;SDS011;35382;51.484;11.476;2022-11-12T08:42:30;13.73;;;9.60;;
49488;SDS011;35382;51.484;11.476;2022-11-12T08:44:29;16.27;;;9.45;;
49488;SDS011;35382;51.484;11.476;2022-11-12T08:46:29;15.90;;;9.48;;
49488;SDS011;35382;51.484;11.476;2022-11-12T08:48:29;15.23;;;10.05;;
49488;SDS011;35382;51.484;11.476;2022-11-12T08:50:29;29.05;;;16.90;;
49488;SDS011;35382;51.484;11.476;2022-11-12T08:52:29;31.27;;;19.95;;
49488;SDS011;35382;51.484;11.476;2022-11-12T08:54:28;24.52;;;16.00;;
49488;SDS011;35382;51.484;11.476;2022-11-12T08:56:28;16.65;;;10.65;;
49488;SDS011;35382;51.484;11.476;2022-11-12T08:58:28;16.27;;;11.02;;
49488;SDS011;35382;51.484;11.476;2022-11-12T09:00:28;13.77;;;10.13;;
49488;SDS011;35382;51.484;11.476;2022-11-12T09:02:30;15.38;;;9.85;;
49488;SDS011;35382;51.484;11.476;2022-11-12T09:04:29;15.50;;;10.68;;
49488;SDS011;35382;51.484;11.476;2022-11-12T09:06:29;18.50;;;11.13;;
49488;SDS011;35382;51.484;11.476;2022-11-12T09:08:29;17.35;;;11.18;;
49488;SDS011;35382;51.484;11.476;2022-11-12T09:10:28;18.77;;;13.00;;
49488;SDS011;35382;51.484;11.476;2022-11-12T09:12:28;19.63;;;12.90;;
49488;SDS011;35382;51.484;11.476;2022-11-12T09:14:27;14.98;;;10.88;;
49488;SDS011;35382;51.484;11.476;2022-11-12T09:16:26;12.70;;;9.60;;
49488;SDS011;35382;51.484;11.476;2022-11-12T09:18:26;15.02;;;10.18;;
49488;SDS011;35382;51.484;11.476;2022-11-12T09:20:27;14.02;;;8.77;;
49488;SDS011;35382;51.484;11.476;2022-11-12T09:22:26;13.02;;;8.88;;
49488;SDS011;35382;51.484;11.476;2022-11-12T09:24:26;12.07;;;9.15;;
49488;SDS011;35382;51.484;11.476;2022-11-12T09:26:26;14.05;;;9.52;;
49488;SDS011;35382;51.484;11.476;2022-11-12T09:28:25;13.20;;;9.55;;
49488;SDS011;35382;51.484;11.476;2022-11-12T09:30:25;13.52;;;9.48;;
49488;SDS011;35382;51.484;11.476;2022-11-12T09:32:24;13.90;;;9.35;;
49488;SDS011;35382;51.484;11.476;2022-11-12T09:34:24;12.52;;;8.63;;
49488;SDS011;35382;51.484;11.476;2022-11-12T09:36:24;16.48;;;10.23;;
49488;SDS011;35382;51.484;11.476;2022-11-12T09:38:23;15.27;;;9.40;;
49488;SDS011;35382;51.484;11.476;2022-11-12T09:40:25;16.02;;;10.80;;
49488;SDS011;35382;51.484;11.476;2022-11-12T09:42:51;12.77;;;9.00;;
49488;SDS011;35382;51.484;11.476;2022-11-12T09:44:54;15.55;;;10.73;;
49488;SDS011;35382;51.484;11.476;2022-11-12T09:46:58;26.33;;;16.83;;
49488;SDS011;35382;51.484;11.476;2022-11-12T09:49:19;18.02;;;12.32;;
49488;SDS011;35382;51.484;11.476;2022-11-12T09:51:26;15.23;;;10.68;;
49488;SDS011;35382;51.484;11.476;2022-11-12T09:53:34;18.25;;;11.52;;
49488;SDS011;35382;51.484;11.476;2022-11-12T09:55:44;19.70;;;13.73;;
49488;SDS011;35382;51.484;11.476;2022-11-12T09:57:47;20.20;;;14.75;;
49488;SDS011;35382;51.484;11.476;2022-11-12T09:59:46;17.65;;;12.75;;
49488;SDS011;35382;51.484;11.476;2022-11-12T10:02:00;14.07;;;10.20;;
49488;SDS011;35382;51.484;11.476;2022-11-12T10:06:38;16.25;;;10.40;;
49488;SDS011;35382;51.484;11.476;2022-11-12T10:08:49;16.88;;;12.20;;
49488;SDS011;35382;51.484;11.476;2022-11-12T10:11:00;13.93;;;9.23;;
49488;SDS011;35382;51.484;11.476;2022-11-12T10:20:24;12.25;;;9.15;;
49488;SDS011;35382;51.484;11.476;2022-11-12T10:24:47;13.40;;;8.88;;
49488;SDS011;35382;51.484;11.476;2022-11-12T10:26:47;14.38;;;9.52;;
49488;SDS011;35382;51.484;11.476;2022-11-12T10:28:49;24.58;;;15.73;;
49488;SDS011;35382;51.484;11.476;2022-11-12T10:31:12;24.25;;;17.63;;
49488;SDS011;35382;51.484;11.476;2022-11-12T10:33:16;18.38;;;13.50;;
49488;SDS011;35382;51.484;11.476;2022-11-12T10:35:17;19.25;;;14.50;;
49488;SDS011;35382;51.484;11.476;2022-11-12T10:37:26;20.10;;;14.55;;
49488;SDS011;35382;51.484;11.476;2022-11-12T10:39:41;15.93;;;13.13;;
49488;SDS011;35382;51.484;11.476;2022-11-12T10:41:42;16.45;;;12.82;;
49488;SDS011;35382;51.484;11.476;2022-11-12T10:43:47;16.45;;;12.20;;
49488;SDS011;35382;51.484;11.476;2022-11-12T10:45:52;13.65;;;9.82;;
49488;SDS011;35382;51.484;11.476;2022-11-12T10:48:31;15.02;;;10.02;;
49488;SDS011;35382;51.484;11.476;2022-11-12T10:50:35;14.38;;;9.43;;
49488;SDS011;35382;51.484;11.476;2022-11-12T10:52:39;13.23;;;9.05;;
49488;SDS011;35382;51.484;11.476;2022-11-12T10:55:02;12.73;;;9.02;;
49488;SDS011;35382;51.484;11.476;2022-11-12T10:57:20;13.43;;;9.02;;
49488;SDS011;35382;51.484;11.476;2022-11-12T11:01:23;11.75;;;8.68;;
49488;SDS011;35382;51.484;11.476;2022-11-12T11:03:24;11.43;;;8.75;;
49488;SDS011;35382;51.484;11.476;2022-11-12T11:05:31;13.70;;;8.88;;
49488;SDS011;35382;51.484;11.476;2022-11-12T11:07:35;12.15;;;8.57;;
49488;SDS011;35382;51.484;11.476;2022-11-12T11:09:35;12.50;;;9.48;;
49488;SDS011;35382;51.484;11.476;2022-11-12T11:11:35;13.07;;;10.25;;
49488;SDS011;35382;51.484;11.476;2022-11-12T11:13:34;13.60;;;9.27;;
49488;SDS011;35382;51.484;11.476;2022-11-12T11:15:34;13.40;;;8.60;;
49488;SDS011;35382;51.484;11.476;2022-11-12T11:17:34;11.82;;;8.73;;
49488;SDS011;35382;51.484;11.476;2022-11-12T11:19:38;12.20;;;8.57;;
49488;SDS011;35382;51.484;11.476;2022-11-12T11:23:54;12.30;;;8.52;;
49488;SDS011;35382;51.484;11.476;2022-11-12T11:26:12;11.57;;;8.40;;
49488;SDS011;35382;51.484;11.476;2022-11-12T11:30:34;10.85;;;8.20;;
49488;SDS011;35382;51.484;11.476;2022-11-12T11:35:18;13.88;;;9.35;;
49488;SDS011;35382;51.484;11.476;2022-11-12T11:39:38;10.38;;;7.50;;
49488;SDS011;35382;51.484;11.476;2022-11-12T11:41:49;11.93;;;8.07;;
49488;SDS011;35382;51.484;11.476;2022-11-12T11:55:27;12.32;;;7.97;;
49488;SDS011;35382;51.484;11.476;2022-11-12T11:57:36;11.50;;;8.73;;
49488;SDS011;35382;51.484;11.476;2022-11-12T12:04:46;11.15;;;7.90;;
49488;SDS011;35382;51.484;11.476;2022-11-12T12:09:14;13.13;;;9.43;;
49488;SDS011;35382;51.484;11.476;2022-11-12T12:16:13;12.55;;;7.75;;
49488;SDS011;35382;51.484;11.476;2022-11-12T12:18:20;12.25;;;8.45;;
49488;SDS011;35382;51.484;11.476;2022-11-12T12:22:48;11.60;;;8.55;;
49488;SDS011;35382;51.484;11.476;2022-11-12T12:24:53;14.15;;;8.50;;
49488;SDS011;35382;51.484;11.476;2022-11-12T12:27:03;11.18;;;8.57;;
49488;SDS011;35382;51.484;11.476;2022-11-12T12:29:14;11.05;;;8.18;;
49488;SDS011;35382;51.484;11.476;2022-11-12T12:31:23;10.70;;;7.80;;
49488;SDS011;35382;51.484;11.476;2022-11-12T12:33:36;12.52;;;9.70;;
49488;SDS011;35382;51.484;11.476;2022-11-12T12:38:16;12.68;;;9.30;;
49488;SDS011;35382;51.484;11.476;2022-11-12T12:40:24;13.25;;;9.13;;
49488;SDS011;35382;51.484;11.476;2022-11-12T12:42:49;13.55;;;8.73;;
49488;SDS011;35382;51.484;11.476;2022-11-12T12:44:54;11.95;;;8.55;;